createdAt,value
2023-04-23T00:00:37.749Z,78.00
2023-04-23T00:03:10.407Z,78.30
2023-04-23T00:05:38.835Z,78.20
2023-04-23T00:08:07.445Z,78.90
2023-04-23T00:10:35.590Z,77.70
2023-04-23T00:13:04.160Z,77.40
2023-04-23T00:15:32.744Z,76.70
2023-04-23T00:18:00.502Z,75.40
2023-04-23T00:20:29.688Z,78.20
2023-04-23T00:22:57.485Z,77.20
2023-04-23T00:25:25.233Z,77.00
2023-04-23T00:27:53.035Z,76.70
2023-04-23T00:30:20.956Z,76.20
2023-04-23T00:32:48.864Z,75.50
2023-04-23T00:35:16.748Z,76.30
2023-04-23T00:37:46.180Z,76.90
2023-04-23T00:40:14.191Z,76.90
2023-04-23T00:42:42.419Z,76.30
2023-04-23T00:45:10.770Z,76.40
2023-04-23T00:47:38.604Z,75.50
2023-04-23T00:50:08.036Z,75.60
2023-04-23T00:52:36.483Z,75.90
2023-04-23T00:55:06.400Z,75.40
2023-04-23T00:57:34.319Z,75.40
2023-04-23T01:00:02.219Z,74.70
2023-04-23T01:02:32.093Z,74.90
2023-04-23T01:05:02.315Z,74.70
2023-04-23T01:07:30.407Z,74.80
2023-04-23T01:09:58.309Z,74.80
2023-04-23T01:12:27.942Z,75.00
2023-04-23T01:14:55.904Z,74.90
2023-04-23T01:17:23.909Z,75.00
2023-04-23T01:19:54.154Z,74.70
2023-04-23T01:22:23.551Z,74.90
2023-04-23T01:24:52.641Z,74.70
2023-04-23T01:27:22.225Z,74.10
2023-04-23T01:29:50.802Z,74.40
2023-04-23T01:32:20.272Z,74.00
2023-04-23T01:34:48.946Z,74.30
2023-04-23T01:37:17.790Z,74.50
2023-04-23T01:39:47.004Z,74.30
2023-04-23T01:42:15.814Z,74.10
2023-04-23T01:44:43.673Z,73.60
2023-04-23T01:47:12.062Z,73.80
2023-04-23T01:49:39.878Z,73.50
2023-04-23T01:52:07.667Z,73.60
2023-04-23T01:54:35.464Z,73.80
2023-04-23T01:57:04.765Z,73.40
2023-04-23T01:59:33.595Z,74.00
2023-04-23T02:02:01.446Z,74.00
2023-04-23T02:04:31.441Z,74.50
2023-04-23T02:06:59.445Z,74.70
2023-04-23T02:09:27.253Z,74.60
2023-04-23T02:11:55.075Z,74.50
2023-04-23T02:14:24.220Z,74.50
2023-04-23T02:16:52.028Z,74.20
2023-04-23T02:19:19.830Z,74.20
2023-04-23T02:21:47.644Z,74.50
2023-04-23T02:24:15.544Z,74.20
2023-04-23T02:26:43.436Z,74.40
2023-04-23T02:29:11.299Z,74.10
2023-04-23T02:31:40.460Z,74.10
2023-04-23T02:34:08.303Z,74.20
2023-04-23T02:36:36.488Z,73.90
2023-04-23T02:39:04.497Z,74.60
2023-04-23T02:41:32.344Z,74.50
2023-04-23T02:44:00.346Z,74.20
2023-04-23T02:46:28.546Z,74.30
2023-04-23T02:48:57.724Z,74.40
2023-04-23T02:51:26.015Z,74.20
2023-04-23T02:53:53.802Z,74.40
2023-04-23T02:56:21.619Z,74.20
2023-04-23T02:58:49.474Z,74.10
2023-04-23T03:01:18.036Z,74.00
2023-04-23T03:03:46.193Z,74.10
2023-04-23T03:06:15.829Z,73.80
2023-04-23T03:08:43.599Z,74.10
2023-04-23T03:11:11.378Z,73.80
2023-04-23T03:13:39.643Z,73.10
2023-04-23T03:16:07.735Z,74.00
2023-04-23T03:18:35.657Z,73.90
2023-04-23T03:21:03.916Z,73.80
2023-04-23T03:23:33.398Z,73.80
2023-04-23T03:26:01.200Z,73.90
2023-04-23T03:28:29.020Z,73.80
2023-04-23T03:30:56.989Z,73.80
2023-04-23T03:33:24.824Z,74.30
2023-04-23T03:35:52.630Z,74.00
2023-04-23T03:38:24.990Z,74.50
2023-04-23T03:40:56.596Z,74.40
2023-04-23T03:43:26.328Z,75.00
2023-04-23T03:46:06.607Z,74.60
2023-04-23T03:48:39.046Z,74.30
2023-04-23T03:51:11.888Z,74.60
2023-04-23T03:53:49.683Z,74.50
2023-04-23T03:56:41.403Z,74.80
2023-04-23T03:59:19.311Z,75.30
2023-04-23T04:01:49.482Z,74.60
2023-04-23T04:04:17.475Z,74.50
2023-04-23T04:06:45.801Z,74.60
2023-04-23T04:09:13.571Z,74.70
2023-04-23T04:11:42.694Z,74.30
2023-04-23T04:14:10.790Z,74.80
2023-04-23T04:16:38.689Z,74.40
2023-04-23T04:19:06.572Z,75.60
2023-04-23T04:21:34.409Z,75.30
2023-04-23T04:24:02.717Z,75.00
2023-04-23T04:26:32.374Z,74.50
2023-04-23T04:29:01.829Z,74.50
2023-04-23T04:31:29.715Z,74.40
2023-04-23T04:33:57.740Z,74.50
2023-04-23T04:36:27.071Z,75.40
2023-04-23T04:38:55.950Z,75.40
2023-04-23T04:41:25.354Z,75.30
2023-04-23T04:43:53.306Z,75.30
2023-04-23T04:46:22.586Z,74.90
2023-04-23T04:48:50.439Z,75.50
2023-04-23T04:51:18.259Z,75.00
2023-04-23T04:53:46.016Z,74.40
2023-04-23T04:56:13.808Z,74.30
2023-04-23T04:58:41.592Z,74.10
2023-04-23T05:01:09.538Z,73.70
2023-04-23T05:03:39.153Z,73.60
2023-04-23T05:06:07.463Z,73.70
2023-04-23T05:08:36.899Z,73.20
2023-04-23T05:11:04.853Z,72.80
2023-04-23T05:13:32.740Z,72.80
2023-04-23T05:16:00.602Z,73.50
2023-04-23T05:18:28.841Z,73.30
2023-04-23T05:20:57.998Z,73.00
2023-04-23T05:23:25.791Z,73.20
2023-04-23T05:25:55.897Z,73.10
2023-04-23T05:28:23.676Z,73.40
2023-04-23T05:30:51.921Z,73.60
2023-04-23T05:33:19.976Z,73.40
2023-04-23T05:35:47.761Z,72.90
2023-04-23T05:38:20.170Z,73.20
2023-04-23T05:40:48.052Z,72.70
2023-04-23T05:43:16.256Z,71.70
2023-04-23T05:45:46.467Z,71.60
2023-04-23T05:48:14.348Z,71.50
2023-04-23T05:50:42.127Z,71.80
2023-04-23T05:53:09.942Z,72.00
2023-04-23T05:55:39.206Z,72.40
2023-04-23T05:58:07.066Z,72.20
2023-04-23T06:00:35.481Z,71.30
2023-04-23T06:03:03.456Z,71.40
2023-04-23T06:05:31.416Z,70.60
2023-04-23T06:07:59.301Z,69.80
2023-04-23T06:10:27.074Z,69.40
2023-04-23T06:12:56.401Z,68.80
2023-04-23T06:15:26.845Z,68.40
2023-04-23T06:17:54.869Z,67.70
2023-04-23T06:20:23.520Z,67.30
2023-04-23T06:22:51.339Z,67.00
2023-04-23T06:25:19.159Z,66.60
2023-04-23T06:27:46.995Z,66.40
2023-04-23T06:30:22.116Z,66.00
2023-04-23T06:32:51.588Z,65.40
2023-04-23T06:35:19.456Z,65.10
2023-04-23T06:37:47.274Z,65.20
2023-04-23T06:40:15.916Z,65.60
2023-04-23T06:42:45.299Z,65.90
2023-04-23T06:45:18.420Z,65.60
2023-04-23T06:47:49.145Z,65.00
2023-04-23T06:50:17.033Z,64.40
2023-04-23T06:52:44.896Z,63.70
2023-04-23T06:55:13.211Z,63.20
2023-04-23T06:57:41.060Z,62.90
2023-04-23T07:00:11.591Z,62.90
2023-04-23T07:02:42.456Z,63.00
2023-04-23T07:05:12.090Z,62.30
2023-04-23T07:07:40.599Z,61.90
2023-04-23T07:10:09.853Z,61.80
2023-04-23T07:12:38.116Z,61.90
2023-04-23T07:15:07.494Z,63.10
2023-04-23T07:17:35.912Z,62.70
2023-04-23T07:20:06.353Z,62.20
2023-04-23T07:22:36.085Z,62.50
2023-04-23T07:25:05.243Z,62.40
2023-04-23T07:27:33.077Z,63.00
2023-04-23T07:30:01.851Z,63.30
2023-04-23T07:32:29.992Z,63.40
2023-04-23T07:34:57.908Z,63.10
2023-04-23T07:37:25.759Z,63.90
2023-04-23T07:39:54.868Z,64.10
2023-04-23T07:42:22.666Z,67.10
2023-04-23T07:44:50.489Z,66.70
2023-04-23T07:47:18.311Z,66.40
2023-04-23T07:49:46.122Z,65.80
2023-04-23T07:52:13.972Z,66.80
2023-04-23T07:54:41.753Z,66.70
2023-04-23T07:57:12.085Z,66.70
2023-04-23T07:59:40.099Z,67.40
2023-04-23T08:02:08.422Z,66.70
2023-04-23T08:04:36.455Z,66.80
2023-04-23T08:07:04.382Z,66.70
2023-04-23T08:09:32.167Z,66.10
2023-04-23T08:12:00.064Z,66.20
2023-04-23T08:14:29.232Z,65.90
2023-04-23T08:16:57.040Z,65.20
2023-04-23T08:19:25.699Z,65.20
2023-04-23T08:21:53.566Z,64.50
2023-04-23T08:24:21.342Z,61.90
2023-04-23T08:26:49.456Z,61.00
2023-04-23T08:29:17.245Z,60.10
2023-04-23T08:31:46.518Z,59.60
2023-04-23T08:34:14.938Z,59.70
2023-04-23T08:36:42.872Z,59.70
2023-04-23T08:39:11.375Z,60.70
2023-04-23T08:41:42.654Z,60.00
2023-04-23T08:44:17.938Z,58.70
2023-04-23T08:46:47.329Z,57.90
2023-04-23T08:49:16.999Z,57.70
2023-04-23T08:51:49.675Z,58.30
2023-04-23T08:54:22.424Z,58.40
2023-04-23T08:56:52.009Z,58.80
2023-04-23T08:59:21.288Z,59.00
2023-04-23T09:01:51.054Z,58.50
2023-04-23T09:04:20.444Z,59.00
2023-04-23T09:06:48.296Z,59.10
2023-04-23T09:09:17.681Z,59.10
2023-04-23T09:11:45.584Z,59.40
2023-04-23T09:14:14.196Z,59.00
2023-04-23T09:16:42.561Z,58.50
2023-04-23T09:19:12.455Z,58.10
2023-04-23T09:21:41.438Z,58.10
2023-04-23T09:24:12.338Z,58.20
2023-04-23T09:26:46.660Z,57.90
2023-04-23T09:29:17.376Z,57.60
2023-04-23T09:31:47.692Z,57.80
2023-04-23T09:34:19.083Z,58.10
2023-04-23T09:36:49.203Z,57.90
2023-04-23T09:39:18.287Z,58.10
2023-04-23T09:41:46.752Z,58.40
2023-04-23T09:44:19.259Z,58.30
2023-04-23T09:46:47.117Z,57.50
2023-04-23T09:49:15.329Z,57.00
2023-04-23T09:51:46.445Z,58.40
2023-04-23T09:54:16.422Z,57.90
2023-04-23T09:56:44.762Z,57.90
2023-04-23T09:59:32.010Z,58.60
2023-04-23T10:02:09.527Z,58.90
2023-04-23T10:04:39.570Z,59.30
2023-04-23T10:09:44.534Z,58.70
2023-04-23T10:12:31.401Z,58.70
2023-04-23T10:15:01.685Z,58.40
2023-04-23T10:17:29.627Z,58.60
2023-04-23T10:19:59.062Z,58.90
2023-04-23T10:22:29.928Z,58.20
2023-04-23T10:24:59.118Z,58.60
2023-04-23T10:27:40.481Z,58.90
2023-04-23T10:30:17.759Z,59.40
2023-04-23T10:32:48.581Z,58.90
2023-04-23T10:35:16.636Z,59.40
2023-04-23T10:37:47.980Z,59.50
2023-04-23T10:40:19.687Z,59.40
2023-04-23T10:42:49.374Z,59.40
2023-04-23T10:47:49.365Z,60.10
2023-04-23T10:50:23.187Z,59.90
2023-04-23T10:52:53.665Z,59.70
2023-04-23T10:55:23.323Z,59.30
2023-04-23T10:58:00.841Z,59.10
2023-04-23T11:00:31.400Z,59.10
2023-04-23T11:02:59.230Z,58.70
2023-04-23T11:05:29.162Z,58.80
2023-04-23T11:08:18.870Z,59.00
2023-04-23T11:10:57.350Z,59.00
2023-04-23T11:13:25.919Z,58.80
2023-04-23T11:16:17.508Z,58.50
2023-04-23T11:18:58.946Z,57.60
2023-04-23T11:21:58.329Z,57.50
2023-04-23T11:24:28.709Z,57.70
2023-04-23T11:26:57.021Z,58.00
2023-04-23T11:29:26.525Z,58.10
2023-04-23T11:32:02.709Z,57.30
2023-04-23T11:34:32.062Z,57.70
2023-04-23T11:37:01.300Z,56.80
2023-04-23T11:39:30.512Z,57.90
2023-04-23T11:41:59.209Z,58.00
2023-04-23T11:44:27.021Z,55.50
2023-04-23T11:49:22.914Z,55.50
2023-04-23T11:51:50.692Z,55.50
2023-04-23T11:54:19.963Z,56.40
2023-04-23T11:56:49.132Z,55.90
2023-04-23T11:59:16.888Z,55.70
2023-04-23T12:01:46.965Z,56.00
2023-04-23T12:04:17.175Z,56.50
2023-04-23T12:06:46.809Z,56.20
2023-04-23T12:09:16.658Z,55.90
2023-04-23T12:11:46.788Z,56.00
2023-04-23T12:14:16.523Z,56.40
2023-04-23T12:16:46.888Z,56.50
2023-04-23T12:19:16.763Z,56.60
2023-04-23T12:21:54.499Z,56.30
2023-04-23T12:24:23.477Z,56.40
2023-04-23T12:26:54.337Z,56.00
2023-04-23T12:29:24.191Z,55.20
2023-04-23T12:31:53.083Z,55.00
2023-04-23T12:34:21.845Z,54.40
2023-04-23T12:36:51.348Z,54.80
2023-04-23T12:39:33.615Z,54.50
2023-04-23T12:42:04.857Z,54.30
2023-04-23T12:44:35.763Z,54.40
2023-04-23T12:47:05.154Z,54.70
2023-04-23T12:49:34.025Z,54.20
2023-04-23T12:52:03.103Z,54.10
2023-04-23T12:54:32.944Z,53.10
2023-04-23T12:57:02.658Z,53.10
2023-04-23T12:59:31.191Z,52.50
2023-04-23T13:02:02.038Z,53.30
2023-04-23T13:04:30.469Z,54.20
2023-04-23T13:06:58.340Z,53.30
2023-04-23T13:09:27.789Z,54.20
2023-04-23T13:11:56.223Z,54.00
2023-04-23T13:14:24.005Z,54.00
2023-04-23T13:16:52.665Z,53.90
2023-04-23T13:19:21.894Z,54.60
2023-04-23T13:21:49.690Z,56.40
2023-04-23T13:24:17.452Z,58.10
2023-04-23T13:26:45.259Z,58.50
2023-04-23T13:29:13.151Z,59.00
2023-04-23T13:31:41.013Z,59.20
2023-04-23T13:34:08.864Z,59.30
2023-04-23T13:36:41.116Z,59.00
2023-04-23T13:39:09.677Z,58.30
2023-04-23T13:41:37.532Z,58.60
2023-04-23T13:44:05.607Z,58.40
2023-04-23T13:46:33.900Z,58.00
2023-04-23T13:49:02.004Z,57.80
2023-04-23T13:51:35.697Z,57.70
2023-04-23T13:54:05.486Z,57.30
2023-04-23T13:56:33.638Z,56.90
2023-04-23T13:59:12.035Z,57.40
2023-04-23T14:01:47.021Z,56.60
2023-04-23T14:04:15.065Z,56.50
2023-04-23T14:06:43.143Z,56.80
2023-04-23T14:09:12.541Z,56.40
2023-04-23T14:11:41.374Z,56.20
2023-04-23T14:14:09.381Z,56.60
2023-04-23T14:16:37.292Z,56.30
2023-04-23T14:19:05.182Z,56.30
2023-04-23T14:21:33.656Z,56.00
2023-04-23T14:24:08.848Z,56.40
2023-04-23T14:26:48.696Z,56.00
2023-04-23T14:29:26.052Z,56.20
2023-04-23T14:31:53.881Z,57.20
2023-04-23T14:34:22.100Z,56.90
2023-04-23T14:36:50.111Z,57.20
2023-04-23T14:39:17.977Z,57.10
2023-04-23T14:41:47.195Z,57.40
2023-04-23T14:44:15.012Z,56.60
2023-04-23T14:46:42.807Z,56.90
2023-04-23T14:49:10.820Z,55.90
2023-04-23T14:51:38.629Z,55.90
2023-04-23T14:54:07.410Z,56.20
2023-04-23T14:56:35.193Z,55.60
2023-04-23T14:59:04.569Z,56.30
2023-04-23T15:01:32.457Z,56.20
2023-04-23T15:04:00.390Z,55.90
2023-04-23T15:06:28.326Z,56.20
2023-04-23T15:08:56.131Z,56.50
2023-04-23T15:11:24.014Z,56.70
2023-04-23T15:13:57.697Z,57.40
2023-04-23T15:16:44.178Z,57.00
2023-04-23T15:19:15.096Z,56.60
2023-04-23T15:21:43.036Z,56.70
2023-04-23T15:24:11.238Z,56.70
2023-04-23T15:26:39.088Z,57.10
2023-04-23T15:29:08.721Z,57.70
2023-04-23T15:31:38.659Z,57.30
2023-04-23T15:34:08.410Z,57.00
2023-04-23T15:36:37.286Z,57.10
2023-04-23T15:39:05.796Z,57.60
2023-04-23T15:41:33.691Z,57.90
2023-04-23T15:44:02.859Z,57.60
2023-04-23T15:46:30.919Z,57.40
2023-04-23T15:49:00.107Z,57.90
2023-04-23T15:51:27.929Z,58.70
2023-04-23T15:53:55.743Z,59.00
2023-04-23T15:56:24.193Z,59.20
2023-04-23T15:58:51.978Z,59.20
2023-04-23T16:01:20.038Z,59.00
2023-04-23T16:04:01.790Z,58.50
2023-04-23T16:06:36.977Z,58.90
2023-04-23T16:09:08.631Z,59.30
2023-04-23T16:11:37.341Z,59.80
2023-04-23T16:14:06.078Z,59.60
2023-04-23T16:16:33.990Z,60.00
2023-04-23T16:19:03.041Z,59.60
2023-04-23T16:21:31.131Z,59.20
2023-04-23T16:24:00.288Z,60.20
2023-04-23T16:26:29.178Z,60.00
2023-04-23T16:29:11.432Z,60.40
2023-04-23T16:31:45.956Z,60.50
2023-04-23T16:34:13.774Z,61.00
2023-04-23T16:36:41.675Z,60.10
2023-04-23T16:39:11.055Z,60.40
2023-04-23T16:41:38.902Z,60.80
2023-04-23T16:44:06.842Z,61.00
2023-04-23T16:46:34.742Z,60.30
2023-04-23T16:49:02.586Z,59.50
2023-04-23T16:51:30.358Z,61.00
2023-04-23T16:53:58.264Z,61.70
2023-04-23T16:56:27.953Z,62.60
2023-04-23T16:58:55.783Z,63.70
2023-04-23T17:01:23.634Z,63.60
2023-04-23T17:03:51.682Z,64.80
2023-04-23T17:06:27.722Z,65.70
2023-04-23T17:08:57.599Z,66.20
2023-04-23T17:11:26.877Z,66.90
2023-04-23T17:13:55.561Z,67.50
2023-04-23T17:16:25.080Z,67.60
2023-04-23T17:18:53.140Z,67.10
2023-04-23T17:21:24.448Z,67.60
2023-04-23T17:23:52.364Z,68.00
2023-04-23T17:26:20.766Z,67.90
2023-04-23T17:28:49.918Z,68.30
2023-04-23T17:31:18.456Z,67.90
2023-04-23T17:33:49.008Z,68.30
2023-04-23T17:36:17.087Z,68.80
2023-04-23T17:38:44.880Z,68.20
2023-04-23T17:41:12.729Z,68.70
2023-04-23T17:43:40.983Z,68.40
2023-04-23T17:46:10.159Z,68.10
2023-04-23T17:48:37.951Z,68.30
2023-04-23T17:51:05.775Z,67.30
2023-04-23T17:53:33.648Z,67.50
2023-04-23T17:56:03.210Z,68.40
2023-04-23T17:58:31.506Z,68.60
2023-04-23T18:00:59.552Z,68.60
2023-04-23T18:03:30.081Z,68.60
2023-04-23T18:05:58.108Z,68.60
2023-04-23T18:08:25.936Z,68.70
2023-04-23T18:10:53.795Z,68.70
2023-04-23T18:13:21.601Z,68.70
2023-04-23T18:15:49.575Z,68.20
2023-04-23T18:18:17.770Z,68.10
2023-04-23T18:20:47.318Z,68.40
2023-04-23T18:23:15.165Z,68.40
2023-04-23T18:25:42.975Z,68.00
2023-04-23T18:28:10.916Z,68.40
2023-04-23T18:30:38.832Z,68.20
2023-04-23T18:33:13.808Z,67.90
2023-04-23T18:35:42.956Z,68.50
2023-04-23T18:38:25.678Z,68.80
2023-04-23T18:40:53.636Z,68.80
2023-04-23T18:43:21.424Z,69.50
2023-04-23T18:45:49.231Z,70.20
2023-04-23T18:48:42.326Z,70.90
2023-04-23T18:51:22.855Z,71.00
2023-04-23T18:53:52.113Z,71.30
2023-04-23T18:56:19.895Z,71.50
2023-04-23T18:58:47.796Z,71.40
2023-04-23T19:01:15.647Z,71.70
2023-04-23T19:03:43.797Z,72.30
2023-04-23T19:06:11.688Z,71.70
2023-04-23T19:08:39.486Z,71.30
2023-04-23T19:11:08.632Z,71.20
2023-04-23T19:13:36.452Z,71.20
2023-04-23T19:16:04.326Z,71.20
2023-04-23T19:18:32.142Z,71.00
2023-04-23T19:20:59.959Z,70.70
2023-04-23T19:23:27.766Z,70.50
2023-04-23T19:25:55.729Z,70.40
2023-04-23T19:28:25.346Z,70.40
2023-04-23T19:30:53.370Z,70.30
2023-04-23T19:33:21.179Z,70.50
2023-04-23T19:35:48.961Z,70.50
2023-04-23T19:38:16.783Z,70.50
2023-04-23T19:40:44.608Z,70.30
2023-04-23T19:43:12.901Z,70.20
2023-04-23T19:45:42.135Z,70.30
2023-04-23T19:48:10.364Z,70.10
2023-04-23T19:50:38.138Z,70.40
2023-04-23T19:53:06.616Z,70.30
2023-04-23T19:55:34.420Z,70.20
2023-04-23T19:58:06.124Z,70.10
2023-04-23T20:00:39.104Z,70.20
2023-04-23T20:03:09.125Z,70.00
2023-04-23T20:05:37.481Z,69.90
2023-04-23T20:08:11.237Z,69.90
2023-04-23T20:10:39.046Z,70.00
2023-04-23T20:13:06.894Z,70.20
2023-04-23T20:15:34.703Z,69.80
2023-04-23T20:18:02.624Z,69.90
2023-04-23T20:20:33.816Z,70.00
2023-04-23T20:23:01.789Z,69.90
2023-04-23T20:25:29.715Z,70.10
2023-04-23T20:27:57.689Z,70.90
2023-04-23T20:30:25.874Z,70.10
2023-04-23T20:32:54.004Z,70.20
2023-04-23T20:35:21.881Z,70.20
2023-04-23T20:37:52.923Z,70.10
2023-04-23T20:40:20.844Z,70.30
2023-04-23T20:42:51.505Z,70.10
2023-04-23T20:45:20.433Z,71.00
2023-04-23T20:47:48.835Z,70.20
2023-04-23T20:50:17.052Z,70.20
2023-04-23T20:52:44.850Z,70.70
2023-04-23T20:55:14.010Z,71.30
2023-04-23T20:57:42.257Z,71.50
2023-04-23T21:00:12.643Z,71.60
2023-04-23T21:02:40.586Z,71.70
2023-04-23T21:05:09.403Z,71.80
2023-04-23T21:07:37.516Z,72.00
2023-04-23T21:10:05.829Z,71.90
2023-04-23T21:12:35.048Z,72.00
2023-04-23T21:15:02.914Z,72.10
2023-04-23T21:17:30.798Z,72.00
2023-04-23T21:19:58.618Z,72.00
2023-04-23T21:22:26.487Z,72.10
2023-04-23T21:24:54.285Z,72.00
2023-04-23T21:27:22.207Z,72.20
2023-04-23T21:29:51.623Z,72.30
2023-04-23T21:32:19.631Z,72.30
2023-04-23T21:34:47.503Z,72.30
2023-04-23T21:37:15.330Z,72.60
2023-04-23T21:39:43.394Z,72.70
2023-04-23T21:42:11.411Z,72.50
2023-04-23T21:44:40.566Z,72.10
2023-04-23T21:47:09.699Z,72.10
2023-04-23T21:49:37.546Z,71.90
2023-04-23T21:52:06.452Z,72.00
2023-04-23T21:54:34.220Z,72.30
2023-04-23T21:57:02.600Z,72.20
2023-04-23T21:59:30.855Z,72.10
2023-04-23T22:01:59.260Z,72.10
2023-04-23T22:04:29.199Z,71.80
2023-04-23T22:07:02.214Z,72.10
2023-04-23T22:09:30.074Z,71.90
2023-04-23T22:14:28.716Z,71.50
2023-04-23T22:16:58.571Z,71.60
2023-04-23T22:19:27.857Z,71.50
2023-04-23T22:21:55.828Z,71.30
2023-04-23T22:24:24.155Z,70.90
2023-04-23T22:26:51.963Z,71.50
2023-04-23T22:29:19.781Z,71.60
2023-04-23T22:31:47.608Z,71.60
2023-04-23T22:34:15.393Z,71.40
2023-04-23T22:36:44.506Z,71.40
2023-04-23T22:39:12.845Z,71.30
2023-04-23T22:41:40.622Z,71.30
2023-04-23T22:44:09.154Z,71.60
2023-04-23T22:46:37.170Z,71.20
2023-04-23T22:49:07.960Z,71.50
2023-04-23T22:51:38.648Z,71.20
2023-04-23T22:54:07.786Z,71.10
2023-04-23T22:56:35.744Z,71.10
2023-04-23T22:59:04.853Z,71.40
2023-04-23T23:01:32.794Z,71.60
2023-04-23T23:04:00.885Z,71.50
2023-04-23T23:06:28.679Z,71.20
2023-04-23T23:08:56.462Z,71.20
2023-04-23T23:11:25.625Z,71.70
2023-04-23T23:13:53.924Z,71.50
2023-04-23T23:16:21.925Z,71.50
2023-04-23T23:18:49.938Z,71.30
2023-04-23T23:21:18.105Z,71.90
2023-04-23T23:23:46.020Z,71.50
2023-04-23T23:26:13.786Z,71.30
2023-04-23T23:28:42.981Z,71.30
2023-04-23T23:31:11.333Z,71.40
2023-04-23T23:33:39.956Z,71.50
2023-04-23T23:36:09.200Z,70.90
2023-04-23T23:38:37.021Z,71.00
2023-04-23T23:41:04.856Z,71.40
2023-04-23T23:43:32.642Z,71.00
2023-04-23T23:46:01.759Z,70.50
2023-04-23T23:48:29.633Z,71.00
2023-04-23T23:50:57.457Z,71.00
2023-04-23T23:53:25.232Z,71.00
2023-04-23T23:55:52.984Z,71.20
2023-04-23T23:58:21.537Z,70.50
